createdAt,value
2023-04-12T00:03:28.508Z,7.55
2023-04-12T00:13:31.325Z,7.52
2023-04-12T00:23:34.300Z,7.38
2023-04-12T00:33:36.453Z,7.17
2023-04-12T00:43:40.857Z,7.01
2023-04-12T00:53:42.992Z,6.77
2023-04-12T01:03:45.189Z,6.59
2023-04-12T01:14:19.884Z,6.50
2023-04-12T01:24:46.266Z,6.53
2023-04-12T01:34:48.525Z,6.51
2023-04-12T01:44:51.622Z,6.56
2023-04-12T01:54:57.421Z,6.56
2023-04-12T02:05:01.193Z,6.61
2023-04-12T02:15:03.985Z,6.62
2023-04-12T02:25:09.100Z,6.62
2023-04-12T02:35:18.468Z,6.58
2023-04-12T02:45:20.418Z,6.64
2023-04-12T02:55:25.941Z,6.65
2023-04-12T03:05:27.876Z,6.64
2023-04-12T03:15:29.844Z,6.60
2023-04-12T03:25:32.885Z,6.65
2023-04-12T03:35:34.834Z,6.66
2023-04-12T03:45:37.806Z,6.64
2023-04-12T03:55:39.799Z,6.64
2023-04-12T04:05:42.096Z,6.72
2023-04-12T04:15:44.070Z,6.75
2023-04-12T04:25:47.345Z,6.74
2023-04-12T04:35:49.394Z,6.78
2023-04-12T04:45:54.822Z,6.83
2023-04-12T04:56:01.643Z,6.85
2023-04-12T05:06:03.681Z,6.89
2023-04-12T05:16:09.358Z,6.94
2023-04-12T05:26:11.557Z,7.05
2023-04-12T05:36:15.878Z,7.22
2023-04-12T05:46:23.782Z,7.17
2023-04-12T05:56:25.923Z,7.27
2023-04-12T06:06:30.593Z,7.43
2023-04-12T06:16:32.672Z,7.55
2023-04-12T06:26:40.255Z,7.61
2023-04-12T06:36:43.802Z,7.55
2023-04-12T06:46:45.858Z,7.56
2023-04-12T06:56:48.148Z,7.78
2023-04-12T07:06:50.131Z,7.83
2023-04-12T07:16:52.045Z,7.88
2023-04-12T07:26:55.284Z,7.93
2023-04-12T07:36:57.335Z,8.11
2023-04-12T07:46:59.261Z,8.03
2023-04-12T07:57:05.715Z,8.23
2023-04-12T08:07:07.762Z,8.28
2023-04-12T08:17:09.786Z,8.48
2023-04-12T08:27:14.155Z,8.72
2023-04-12T08:37:17.226Z,8.12
2023-04-12T08:47:19.992Z,8.47
2023-04-12T08:57:22.310Z,8.43
2023-04-12T09:07:28.053Z,8.96
2023-04-12T09:17:30.202Z,9.14
2023-04-12T09:27:47.159Z,9.22
2023-04-12T09:37:58.404Z,8.98
2023-04-12T09:48:00.645Z,10.48
2023-04-12T09:58:05.163Z,11.27
2023-04-12T10:08:08.424Z,10.92
2023-04-12T10:18:14.581Z,11.27
2023-04-12T10:28:21.964Z,11.15
2023-04-12T10:38:27.028Z,10.96
2023-04-12T10:48:51.089Z,11.15
2023-04-12T10:58:53.072Z,11.58
2023-04-12T11:08:56.726Z,10.93
2023-04-12T11:19:01.064Z,11.17
2023-04-12T11:29:08.157Z,11.00
2023-04-12T11:39:10.678Z,11.09
2023-04-12T11:49:17.850Z,10.79
2023-04-12T11:59:19.907Z,11.10
2023-04-12T12:09:24.204Z,11.80
2023-04-12T12:19:56.205Z,12.07
2023-04-12T12:30:01.875Z,12.04
2023-04-12T12:40:11.223Z,12.07
2023-04-12T12:50:14.524Z,12.04
2023-04-12T13:00:17.309Z,12.45
2023-04-12T13:10:20.643Z,11.67
2023-04-12T13:20:23.293Z,11.85
2023-04-12T13:30:25.684Z,12.08
2023-04-12T13:40:27.742Z,12.02
2023-04-12T13:50:29.694Z,12.42
2023-04-12T14:00:31.751Z,12.73
2023-04-12T14:10:33.818Z,12.80
2023-04-12T14:20:35.796Z,12.75
2023-04-12T14:30:37.899Z,12.55
2023-04-12T14:40:39.992Z,12.45
2023-04-12T14:50:42.007Z,12.23
2023-04-12T15:00:45.388Z,11.96
2023-04-12T15:10:48.020Z,11.82
2023-04-12T15:20:50.035Z,11.88
2023-04-12T15:30:52.049Z,11.58
2023-04-12T15:40:56.302Z,11.70
2023-04-12T15:50:58.493Z,11.44
2023-04-12T16:01:02.729Z,11.33
2023-04-12T16:11:04.999Z,11.22
2023-04-12T16:21:07.128Z,11.11
2023-04-12T16:31:10.926Z,10.90
2023-04-12T16:41:13.203Z,10.79
2023-04-12T16:51:16.666Z,10.65
2023-04-12T17:01:22.588Z,10.49
2023-04-12T17:11:24.689Z,10.25
2023-04-12T17:21:27.667Z,10.03
2023-04-12T17:31:37.696Z,9.51
2023-04-12T17:41:41.444Z,9.06
2023-04-12T17:51:44.006Z,8.74
2023-04-12T18:01:48.759Z,8.56
2023-04-12T18:11:52.195Z,8.31
2023-04-12T18:21:54.686Z,8.15
2023-04-12T18:31:57.940Z,8.06
2023-04-12T18:42:03.960Z,8.09
2023-04-12T18:52:06.304Z,7.49
2023-04-12T19:02:09.738Z,7.71
2023-04-12T19:12:18.596Z,7.68
2023-04-12T19:22:30.409Z,7.06
2023-04-12T19:32:34.546Z,6.73
2023-04-12T19:42:37.548Z,6.39
2023-04-12T19:53:18.979Z,6.41
2023-04-12T20:03:22.563Z,5.80
2023-04-12T20:13:25.713Z,5.75
2023-04-12T20:23:30.096Z,5.79
2023-04-12T20:33:33.943Z,5.36
2023-04-12T20:43:48.387Z,5.04
2023-04-12T20:53:51.862Z,5.03
2023-04-12T21:03:54.562Z,4.83
2023-04-12T21:13:56.636Z,4.52
2023-04-12T21:23:58.557Z,4.43
2023-04-12T21:34:00.497Z,4.56
2023-04-12T21:44:02.364Z,4.60
2023-04-12T21:54:04.462Z,4.35
2023-04-12T22:04:06.965Z,4.12
2023-04-12T22:14:11.455Z,3.89
2023-04-12T22:24:13.623Z,3.15
2023-04-12T22:34:15.573Z,3.19
2023-04-12T22:44:18.605Z,3.55
2023-04-12T22:54:32.454Z,2.97
2023-04-12T23:04:34.407Z,3.25
2023-04-12T23:14:37.825Z,3.22
2023-04-12T23:24:39.724Z,2.99
2023-04-12T23:34:41.663Z,2.43
2023-04-12T23:44:43.539Z,2.93
2023-04-12T23:54:52.864Z,3.00
